createdAt,value
2018-03-26T00:00:25.747Z,110.30
2018-03-26T00:02:54.037Z,117.57
2018-03-26T00:05:22.369Z,110.73
2018-03-26T00:07:51.496Z,114.43
2018-03-26T00:10:19.779Z,114.63
2018-03-26T00:12:48.062Z,119.43
2018-03-26T00:15:16.387Z,123.23
2018-03-26T00:17:45.415Z,112.57
2018-03-26T00:20:13.749Z,112.50
2018-03-26T00:22:41.987Z,114.57
2018-03-26T00:25:10.265Z,121.23
2018-03-26T00:27:38.526Z,119.27
2018-03-26T00:30:06.812Z,109.20
2018-03-26T00:32:35.083Z,113.90
2018-03-26T00:35:03.361Z,124.90
2018-03-26T00:37:31.619Z,124.37
2018-03-26T00:39:59.904Z,120.20
2018-03-26T00:42:28.261Z,112.17
2018-03-26T00:44:56.547Z,113.33
2018-03-26T00:47:24.812Z,117.87
2018-03-26T00:49:53.074Z,123.27
2018-03-26T00:52:21.400Z,119.90
2018-03-26T00:54:49.783Z,112.93
2018-03-26T00:57:18.046Z,119.17
2018-03-26T00:59:46.377Z,117.63
2018-03-26T01:02:15.402Z,103.40
2018-03-26T01:04:43.668Z,111.07
2018-03-26T01:07:11.957Z,106.47
2018-03-26T01:09:40.211Z,99.83
2018-03-26T01:12:08.554Z,96.50
2018-03-26T01:14:36.816Z,100.03
2018-03-26T01:17:05.927Z,96.73
2018-03-26T01:19:34.960Z,90.77
2018-03-26T01:22:03.231Z,95.27
2018-03-26T01:24:31.484Z,100.03
2018-03-26T01:26:59.774Z,97.00
2018-03-26T01:29:28.020Z,93.30
2018-03-26T01:31:56.327Z,92.20
2018-03-26T01:34:24.682Z,85.80
2018-03-26T01:36:52.987Z,85.70
2018-03-26T01:39:21.230Z,86.07
2018-03-26T01:41:50.267Z,78.60
2018-03-26T01:44:18.650Z,85.63
2018-03-26T01:46:46.909Z,77.90
2018-03-26T01:49:15.327Z,80.33
2018-03-26T01:51:43.563Z,72.40
2018-03-26T01:54:11.836Z,69.83
2018-03-26T01:56:40.092Z,70.43
2018-03-26T01:59:08.353Z,70.77
2018-03-26T02:01:36.612Z,70.97
2018-03-26T02:04:05.640Z,70.13
2018-03-26T02:06:33.895Z,76.30
2018-03-26T02:09:02.157Z,66.67
2018-03-26T02:11:31.168Z,72.10
2018-03-26T02:13:59.454Z,69.97
2018-03-26T02:16:27.715Z,71.70
2018-03-26T02:18:55.997Z,66.03
2018-03-26T02:21:24.238Z,68.77
2018-03-26T02:23:53.258Z,73.53
2018-03-26T02:26:21.704Z,71.67
2018-03-26T02:28:49.955Z,76.03
2018-03-26T02:31:18.374Z,69.33
2018-03-26T02:33:47.387Z,80.20
2018-03-26T02:36:15.677Z,74.10
2018-03-26T02:38:43.964Z,73.00
2018-03-26T02:41:12.218Z,74.77
2018-03-26T02:43:40.505Z,78.43
2018-03-26T02:46:08.773Z,75.17
2018-03-26T02:48:37.028Z,75.00
2018-03-26T02:51:05.300Z,76.23
2018-03-26T02:53:33.579Z,83.80
2018-03-26T02:56:01.826Z,79.60
2018-03-26T02:58:30.901Z,83.20
2018-03-26T03:00:59.338Z,81.93
2018-03-26T03:03:27.624Z,79.90
2018-03-26T03:05:55.870Z,86.63
2018-03-26T03:08:24.144Z,90.73
2018-03-26T03:10:53.151Z,78.77
2018-03-26T03:13:21.566Z,86.80
2018-03-26T03:15:49.815Z,87.50
2018-03-26T03:18:18.089Z,88.07
2018-03-26T03:20:46.461Z,95.17
2018-03-26T03:23:14.895Z,90.33
2018-03-26T03:25:43.244Z,89.40
2018-03-26T03:28:11.535Z,96.03
2018-03-26T03:30:39.779Z,91.40
2018-03-26T03:33:08.167Z,94.57
2018-03-26T03:35:36.430Z,94.40
2018-03-26T03:38:04.684Z,99.10
2018-03-26T03:40:32.951Z,105.33
2018-03-26T03:43:01.227Z,111.77
2018-03-26T03:45:29.626Z,105.70
2018-03-26T03:47:57.925Z,113.30
2018-03-26T03:50:26.197Z,122.73
2018-03-26T03:52:54.492Z,119.03
2018-03-26T03:55:22.811Z,117.00
2018-03-26T03:57:51.103Z,111.70
2018-03-26T04:00:19.450Z,122.23
2018-03-26T04:02:48.474Z,120.53
2018-03-26T04:05:16.819Z,128.67
2018-03-26T04:07:45.075Z,121.30
2018-03-26T04:10:15.406Z,136.00
2018-03-26T04:12:44.569Z,130.87
2018-03-26T04:15:12.869Z,124.90
2018-03-26T04:17:41.127Z,120.73
2018-03-26T04:20:09.367Z,119.73
2018-03-26T04:22:37.737Z,133.70
2018-03-26T04:25:06.137Z,132.60
2018-03-26T04:27:34.440Z,138.23
2018-03-26T04:30:02.719Z,139.33
2018-03-26T04:32:31.783Z,149.17
2018-03-26T04:35:00.094Z,143.77
2018-03-26T04:37:29.183Z,141.93
2018-03-26T04:39:57.456Z,143.10
2018-03-26T04:42:25.707Z,144.47
2018-03-26T04:44:53.968Z,136.37
2018-03-26T04:47:22.258Z,142.63
2018-03-26T04:49:50.528Z,151.70
2018-03-26T04:52:18.804Z,152.20
2018-03-26T04:54:47.095Z,155.17
2018-03-26T04:57:15.369Z,144.87
2018-03-26T04:59:43.651Z,148.90
2018-03-26T05:02:12.007Z,147.13
2018-03-26T05:04:40.248Z,159.50
2018-03-26T05:07:08.520Z,152.17
2018-03-26T05:09:36.804Z,160.10
2018-03-26T05:12:05.065Z,153.27
2018-03-26T05:14:33.331Z,151.57
2018-03-26T05:17:01.631Z,152.17
2018-03-26T05:19:29.952Z,159.83
2018-03-26T05:21:58.231Z,153.20
2018-03-26T05:24:27.712Z,172.17
2018-03-26T05:26:56.007Z,181.20
2018-03-26T05:29:25.067Z,180.70
2018-03-26T05:31:53.475Z,200.60
2018-03-26T05:34:22.529Z,176.23
2018-03-26T05:36:50.795Z,191.70
2018-03-26T05:39:19.089Z,196.20
2018-03-26T05:41:47.367Z,189.63
2018-03-26T05:44:15.683Z,171.97
2018-03-26T05:46:44.711Z,211.67
2018-03-26T05:49:13.042Z,178.80
2018-03-26T05:51:41.390Z,182.13
2018-03-26T05:54:09.675Z,217.57
2018-03-26T05:56:37.988Z,206.93
2018-03-26T05:59:06.299Z,226.97
2018-03-26T06:01:34.739Z,204.60
2018-03-26T06:04:03.775Z,223.20
2018-03-26T06:06:32.064Z,202.67
2018-03-26T06:09:00.319Z,195.57
2018-03-26T06:11:28.688Z,207.10
2018-03-26T06:13:56.967Z,169.43
2018-03-26T06:16:25.246Z,182.13
2018-03-26T06:18:53.540Z,143.80
2018-03-26T06:21:21.802Z,140.67
2018-03-26T06:23:50.068Z,127.97
2018-03-26T06:26:18.344Z,152.70
2018-03-26T06:28:46.614Z,182.80
2018-03-26T06:31:14.883Z,141.00
2018-03-26T06:33:43.144Z,155.73
2018-03-26T06:36:11.421Z,177.50
2018-03-26T06:38:39.669Z,163.40
2018-03-26T06:41:08.723Z,138.63
2018-03-26T06:43:36.978Z,160.03
2018-03-26T06:46:05.262Z,133.47
2018-03-26T06:48:33.584Z,121.00
2018-03-26T06:51:01.920Z,122.37
2018-03-26T06:53:30.193Z,121.77
2018-03-26T06:55:58.494Z,123.43
2018-03-26T06:58:26.763Z,125.67
2018-03-26T07:00:55.074Z,106.50
2018-03-26T07:03:24.276Z,113.83
2018-03-26T07:05:53.295Z,108.83
2018-03-26T07:08:21.558Z,109.73
2018-03-26T07:10:49.824Z,101.87
2018-03-26T07:13:18.110Z,110.30
2018-03-26T07:15:46.413Z,111.40
2018-03-26T07:18:14.776Z,113.53
2018-03-26T07:20:43.044Z,117.77
2018-03-26T07:23:11.382Z,111.13
2018-03-26T07:25:40.401Z,96.33
2018-03-26T07:28:08.655Z,86.77
2018-03-26T07:30:37.692Z,79.17
2018-03-26T07:33:05.969Z,82.03
2018-03-26T07:35:34.299Z,74.60
2018-03-26T07:38:03.337Z,87.20
2018-03-26T07:40:31.605Z,93.43
2018-03-26T07:42:59.912Z,105.37
2018-03-26T07:45:28.693Z,88.63
2018-03-26T07:47:56.955Z,88.23
2018-03-26T07:50:25.233Z,80.93
2018-03-26T07:52:53.494Z,78.30
2018-03-26T07:55:21.775Z,81.77
2018-03-26T07:57:50.040Z,85.43
2018-03-26T08:00:18.328Z,73.90
2018-03-26T08:02:46.651Z,83.47
2018-03-26T08:05:15.680Z,80.77
2018-03-26T08:07:43.944Z,74.37
2018-03-26T08:10:12.224Z,72.90
2018-03-26T08:12:40.533Z,61.83
2018-03-26T08:15:08.932Z,70.67
2018-03-26T08:17:37.213Z,66.10
2018-03-26T08:20:05.483Z,62.00
2018-03-26T08:22:33.809Z,64.20
2018-03-26T08:25:02.069Z,55.80
2018-03-26T08:27:30.420Z,47.93
2018-03-26T08:29:59.565Z,61.73
2018-03-26T08:32:27.827Z,62.83
2018-03-26T08:34:56.226Z,61.53
2018-03-26T08:37:24.544Z,66.23
2018-03-26T08:39:53.612Z,58.83
2018-03-26T08:42:21.902Z,46.67
2018-03-26T08:44:50.149Z,47.43
2018-03-26T08:47:18.408Z,45.23
2018-03-26T08:49:46.827Z,41.97
2018-03-26T08:52:15.004Z,37.53
2018-03-26T08:54:43.359Z,31.97
2018-03-26T08:57:11.638Z,31.53
2018-03-26T08:59:39.900Z,30.17
2018-03-26T09:02:08.243Z,31.43
2018-03-26T09:04:36.524Z,30.23
2018-03-26T09:07:04.799Z,33.90
2018-03-26T09:09:33.124Z,31.47
2018-03-26T09:12:01.453Z,32.53
2018-03-26T09:14:29.680Z,32.63
2018-03-26T09:16:58.014Z,27.33
2018-03-26T09:19:26.392Z,27.00
2018-03-26T09:21:54.680Z,29.00
2018-03-26T09:24:22.940Z,26.73
2018-03-26T09:26:51.385Z,29.43
2018-03-26T09:29:20.388Z,28.27
2018-03-26T09:31:48.671Z,27.73
2018-03-26T09:34:16.970Z,20.00
2018-03-26T09:36:45.253Z,23.67
2018-03-26T09:39:13.535Z,21.47
2018-03-26T09:41:41.826Z,24.83
2018-03-26T09:44:10.072Z,22.90
2018-03-26T09:46:38.380Z,20.37
2018-03-26T09:49:06.678Z,20.97
2018-03-26T09:51:35.682Z,23.33
2018-03-26T09:54:03.954Z,15.90
2018-03-26T09:56:32.224Z,18.40
2018-03-26T09:59:01.329Z,20.17
2018-03-26T10:01:30.344Z,18.30
2018-03-26T10:03:58.624Z,14.43
2018-03-26T10:06:26.967Z,16.20
2018-03-26T10:08:55.248Z,13.10
2018-03-26T10:11:23.755Z,13.40
2018-03-26T10:13:52.019Z,15.77
2018-03-26T10:16:20.285Z,16.80
2018-03-26T10:18:49.887Z,12.47
2018-03-26T10:21:18.735Z,12.83
2018-03-26T10:23:47.012Z,10.33
2018-03-26T10:26:15.280Z,10.70
2018-03-26T10:28:43.571Z,9.03
2018-03-26T10:31:11.860Z,9.90
2018-03-26T10:33:40.072Z,13.03
2018-03-26T10:36:08.349Z,11.63
2018-03-26T10:38:36.615Z,12.03
2018-03-26T10:41:04.938Z,14.97
2018-03-26T10:43:33.216Z,15.53
2018-03-26T10:46:01.510Z,16.17
2018-03-26T10:48:29.805Z,13.37
2018-03-26T10:50:58.847Z,13.33
2018-03-26T10:53:27.101Z,13.83
2018-03-26T10:55:55.383Z,13.77
2018-03-26T10:58:23.669Z,11.43
2018-03-26T11:00:51.920Z,11.33
2018-03-26T11:03:20.210Z,13.67
2018-03-26T11:05:48.479Z,11.00
2018-03-26T11:08:16.757Z,11.27
2018-03-26T11:10:45.176Z,10.60
2018-03-26T11:13:13.420Z,11.90
2018-03-26T11:15:41.684Z,12.53
2018-03-26T11:18:09.969Z,11.33
2018-03-26T11:20:38.251Z,10.13
2018-03-26T11:23:06.524Z,12.90
2018-03-26T11:25:34.997Z,10.33
2018-03-26T11:28:04.161Z,14.47
2018-03-26T11:30:32.344Z,9.83
2018-03-26T11:33:00.634Z,10.30
2018-03-26T11:35:28.919Z,7.63
2018-03-26T11:37:57.211Z,11.10
2018-03-26T11:40:25.711Z,11.53
2018-03-26T11:42:54.317Z,10.07
2018-03-26T11:45:22.592Z,11.97
2018-03-26T11:47:50.992Z,9.40
2018-03-26T11:50:19.322Z,11.77
2018-03-26T11:52:48.364Z,8.60
2018-03-26T11:55:16.720Z,9.57
2018-03-26T11:57:44.904Z,8.53
2018-03-26T12:00:13.304Z,7.80
2018-03-26T12:02:43.125Z,10.77
2018-03-26T12:05:11.437Z,10.63
2018-03-26T12:07:39.861Z,5.83
2018-03-26T12:10:08.262Z,6.23
2018-03-26T12:12:36.583Z,8.07
2018-03-26T12:15:04.929Z,5.47
2018-03-26T12:17:33.162Z,6.60
2018-03-26T12:20:13.379Z,7.87
2018-03-26T12:22:42.509Z,5.87
2018-03-26T12:25:16.476Z,5.50
2018-03-26T12:27:56.543Z,7.07
2018-03-26T12:30:24.780Z,8.03
2018-03-26T12:32:53.044Z,5.27
2018-03-26T12:35:33.273Z,6.30
2018-03-26T12:38:01.505Z,7.20
2018-03-26T12:40:42.366Z,7.03
2018-03-26T12:43:10.752Z,4.43
2018-03-26T12:45:51.074Z,6.33
2018-03-26T12:48:20.404Z,9.07
2018-03-26T12:51:01.027Z,5.20
2018-03-26T12:53:29.259Z,7.33
2018-03-26T12:55:58.506Z,7.07
2018-03-26T12:58:39.133Z,6.63
2018-03-26T13:01:19.211Z,8.23
2018-03-26T13:03:47.455Z,6.90
2018-03-26T13:06:15.744Z,7.33
2018-03-26T13:08:44.026Z,6.07
2018-03-26T13:11:12.379Z,7.27
2018-03-26T13:13:40.755Z,5.87
2018-03-26T13:16:09.159Z,7.37
2018-03-26T13:18:37.431Z,6.43
2018-03-26T13:21:05.742Z,8.37
2018-03-26T13:23:34.800Z,7.90
2018-03-26T13:26:03.076Z,7.93
2018-03-26T13:28:31.394Z,6.80
2018-03-26T13:30:59.641Z,7.07
2018-03-26T13:33:28.039Z,7.30
2018-03-26T13:35:57.087Z,6.70
2018-03-26T13:38:25.363Z,7.67
2018-03-26T13:40:53.643Z,9.40
2018-03-26T13:43:21.928Z,7.77
2018-03-26T13:45:50.196Z,7.73
2018-03-26T13:48:18.506Z,8.57
2018-03-26T13:50:46.736Z,5.63
2018-03-26T13:53:15.006Z,7.40
2018-03-26T13:55:43.326Z,7.77
2018-03-26T13:58:11.551Z,5.37
2018-03-26T14:00:39.823Z,5.30
2018-03-26T14:03:08.069Z,7.13
2018-03-26T14:05:37.107Z,7.53
2018-03-26T14:08:05.363Z,5.60
2018-03-26T14:10:45.759Z,4.07
2018-03-26T14:13:25.860Z,5.27
2018-03-26T14:16:06.140Z,7.57
2018-03-26T14:18:34.682Z,5.90
2018-03-26T14:21:04.267Z,4.20
2018-03-26T14:23:32.628Z,5.47
2018-03-26T14:26:01.025Z,5.43
2018-03-26T14:28:29.285Z,5.33
2018-03-26T14:30:57.571Z,5.93
2018-03-26T14:33:25.842Z,7.60
2018-03-26T14:35:54.248Z,5.77
2018-03-26T14:38:23.443Z,8.20
2018-03-26T14:40:52.542Z,6.03
2018-03-26T14:43:21.729Z,5.23
2018-03-26T14:45:50.956Z,6.80
2018-03-26T14:48:19.211Z,7.47
2018-03-26T14:50:48.630Z,6.00
2018-03-26T14:53:17.166Z,6.93
2018-03-26T14:55:45.452Z,6.70
2018-03-26T14:58:14.491Z,7.27
2018-03-26T15:00:42.759Z,6.27
2018-03-26T15:03:11.775Z,5.83
2018-03-26T15:05:40.020Z,7.30
2018-03-26T15:08:12.517Z,9.17
2018-03-26T15:10:42.183Z,8.40
2018-03-26T15:13:10.396Z,6.67
2018-03-26T15:15:38.678Z,8.67
2018-03-26T15:18:08.091Z,8.13
2018-03-26T15:20:36.366Z,7.23
2018-03-26T15:23:04.634Z,7.87
2018-03-26T15:25:33.039Z,8.17
2018-03-26T15:28:01.343Z,7.33
2018-03-26T15:30:29.609Z,6.20
2018-03-26T15:32:57.896Z,6.50
2018-03-26T15:35:26.191Z,7.03
2018-03-26T15:37:54.502Z,8.37
2018-03-26T15:40:22.951Z,8.33
2018-03-26T15:42:51.301Z,7.00
2018-03-26T15:45:19.646Z,8.83
2018-03-26T15:47:47.892Z,7.23
2018-03-26T15:50:16.174Z,11.73
2018-03-26T15:52:44.481Z,9.07
2018-03-26T15:55:12.918Z,11.17
2018-03-26T15:57:41.268Z,8.67
2018-03-26T16:00:10.286Z,8.97
2018-03-26T16:02:38.598Z,10.37
2018-03-26T16:05:06.827Z,11.40
2018-03-26T16:07:35.147Z,10.03
2018-03-26T16:10:04.244Z,10.37
2018-03-26T16:12:32.460Z,8.47
2018-03-26T16:15:00.734Z,9.83
2018-03-26T16:17:29.107Z,8.40
2018-03-26T16:19:57.319Z,8.60
2018-03-26T16:22:25.581Z,9.30
2018-03-26T16:24:53.871Z,8.00
2018-03-26T16:27:22.164Z,9.93
2018-03-26T16:29:50.827Z,9.00
2018-03-26T16:32:19.074Z,10.03
2018-03-26T16:34:47.403Z,8.13
2018-03-26T16:37:15.711Z,7.67
2018-03-26T16:39:44.706Z,7.63
2018-03-26T16:42:27.207Z,8.03
2018-03-26T16:44:55.488Z,6.77
2018-03-26T16:47:23.726Z,10.20
2018-03-26T16:49:52.764Z,8.40
2018-03-26T16:52:21.035Z,9.03
2018-03-26T16:54:49.332Z,7.07
2018-03-26T16:57:17.693Z,6.43
2018-03-26T16:59:45.959Z,5.93
2018-03-26T17:02:14.295Z,7.70
2018-03-26T17:04:42.628Z,8.63
2018-03-26T17:07:10.872Z,7.93
2018-03-26T17:09:39.879Z,9.40
2018-03-26T17:12:08.124Z,8.83
2018-03-26T17:14:37.220Z,9.40
2018-03-26T17:17:06.328Z,10.80
2018-03-26T17:19:34.728Z,8.23
2018-03-26T17:22:03.131Z,9.00
2018-03-26T17:24:32.270Z,8.77
2018-03-26T17:27:00.648Z,11.17
2018-03-26T17:29:29.686Z,9.43
2018-03-26T17:31:57.972Z,8.40
2018-03-26T17:34:26.280Z,8.73
2018-03-26T17:36:54.646Z,8.90
2018-03-26T17:39:22.898Z,10.33
2018-03-26T17:41:51.208Z,8.90
2018-03-26T17:44:20.256Z,10.00
2018-03-26T17:46:48.539Z,12.50
2018-03-26T17:49:16.816Z,9.20
2018-03-26T17:51:45.128Z,13.57
2018-03-26T17:54:14.312Z,10.47
2018-03-26T17:56:42.606Z,13.77
2018-03-26T17:59:11.681Z,11.03
2018-03-26T18:01:39.941Z,10.17
2018-03-26T18:04:09.224Z,11.03
2018-03-26T18:06:37.536Z,9.77
2018-03-26T18:09:06.578Z,9.03
2018-03-26T18:11:34.853Z,8.67
2018-03-26T18:14:03.162Z,9.13
2018-03-26T18:16:31.452Z,8.30
2018-03-26T18:18:59.714Z,8.67
2018-03-26T18:21:28.223Z,10.60
2018-03-26T18:23:57.281Z,9.53
2018-03-26T18:26:25.577Z,9.07
2018-03-26T18:28:53.846Z,11.27
2018-03-26T18:31:23.048Z,9.93
2018-03-26T18:33:51.263Z,12.40
2018-03-26T18:36:19.567Z,9.17
2018-03-26T18:38:47.858Z,12.57
2018-03-26T18:41:16.206Z,8.87
2018-03-26T18:43:44.487Z,8.70
2018-03-26T18:46:12.815Z,10.33
2018-03-26T18:48:41.866Z,11.53
2018-03-26T18:51:10.130Z,12.47
2018-03-26T18:53:38.417Z,13.43
2018-03-26T18:56:06.662Z,11.70
2018-03-26T18:58:35.135Z,10.90
2018-03-26T19:01:03.515Z,13.00
2018-03-26T19:03:31.793Z,13.67
2018-03-26T19:06:00.074Z,14.13
2018-03-26T19:08:28.319Z,13.10
2018-03-26T19:10:57.333Z,13.23
2018-03-26T19:13:25.589Z,11.63
2018-03-26T19:15:54.673Z,12.57
2018-03-26T19:18:23.688Z,14.53
2018-03-26T19:20:52.098Z,16.43
2018-03-26T19:23:20.569Z,14.23
2018-03-26T19:25:48.907Z,16.13
2018-03-26T19:28:17.211Z,14.70
2018-03-26T19:30:46.450Z,15.10
2018-03-26T19:33:14.752Z,15.27
2018-03-26T19:35:43.798Z,18.10
2018-03-26T19:38:12.050Z,19.23
2018-03-26T19:40:40.315Z,17.27
2018-03-26T19:43:08.605Z,13.67
2018-03-26T19:45:36.946Z,13.13
2018-03-26T19:48:06.013Z,14.10
2018-03-26T19:50:34.288Z,12.07
2018-03-26T19:53:02.551Z,13.60
2018-03-26T19:55:30.808Z,12.37
2018-03-26T19:57:59.085Z,13.70
2018-03-26T20:00:28.168Z,14.97
2018-03-26T20:02:56.472Z,15.50
2018-03-26T20:05:24.863Z,15.90
2018-03-26T20:07:53.148Z,13.47
2018-03-26T20:10:21.447Z,17.17
2018-03-26T20:12:49.741Z,18.73
2018-03-26T20:15:18.002Z,18.70
2018-03-26T20:17:47.069Z,13.97
2018-03-26T20:20:15.353Z,14.80
2018-03-26T20:22:44.373Z,17.77
2018-03-26T20:25:12.632Z,16.93
2018-03-26T20:27:41.083Z,17.13
2018-03-26T20:30:09.353Z,16.83
2018-03-26T20:32:38.472Z,16.53
2018-03-26T20:35:07.584Z,20.27
2018-03-26T20:37:35.853Z,21.20
2018-03-26T20:40:04.165Z,21.47
2018-03-26T20:42:33.685Z,22.23
2018-03-26T20:45:02.234Z,21.40
2018-03-26T20:47:30.480Z,21.90
2018-03-26T20:49:58.767Z,23.43
2018-03-26T20:52:27.047Z,23.17
2018-03-26T20:54:55.373Z,30.27
2018-03-26T20:57:23.834Z,28.80
2018-03-26T20:59:52.111Z,23.77
2018-03-26T21:02:20.568Z,21.00
2018-03-26T21:04:51.780Z,20.60
2018-03-26T21:07:20.957Z,20.50
2018-03-26T21:09:49.175Z,24.07
2018-03-26T21:12:17.683Z,24.80
2018-03-26T21:14:46.034Z,26.37
2018-03-26T21:17:14.311Z,24.93
2018-03-26T21:19:42.595Z,26.13
2018-03-26T21:22:10.883Z,24.83
2018-03-26T21:24:39.291Z,25.83
2018-03-26T21:27:07.741Z,21.80
2018-03-26T21:29:35.995Z,24.37
2018-03-26T21:32:04.436Z,23.83
2018-03-26T21:34:33.648Z,25.47
2018-03-26T21:37:01.955Z,22.90
2018-03-26T21:39:30.229Z,24.67
2018-03-26T21:41:58.504Z,23.27
2018-03-26T21:44:26.779Z,24.07
2018-03-26T21:46:55.057Z,29.27
2018-03-26T21:49:23.356Z,30.53
2018-03-26T21:51:51.660Z,32.43
2018-03-26T21:54:20.683Z,30.20
2018-03-26T21:56:48.963Z,29.83
2018-03-26T22:01:52.491Z,31.70
2018-03-26T22:04:20.824Z,36.30
2018-03-26T22:06:49.839Z,39.40
2018-03-26T22:09:18.112Z,40.20
2018-03-26T22:11:46.377Z,41.13
2018-03-26T22:14:14.651Z,39.77
2018-03-26T22:16:42.912Z,41.27
2018-03-26T22:19:11.952Z,40.03
2018-03-26T22:21:40.206Z,43.23
2018-03-26T22:24:08.468Z,43.13
2018-03-26T22:26:36.807Z,46.60
2018-03-26T22:29:05.074Z,46.37
2018-03-26T22:31:33.457Z,44.83
2018-03-26T22:34:01.720Z,47.60
2018-03-26T22:36:29.992Z,55.83
2018-03-26T22:38:58.247Z,46.97
2018-03-26T22:41:26.635Z,51.30
2018-03-26T22:43:54.915Z,47.37
2018-03-26T22:46:23.192Z,47.43
2018-03-26T22:48:51.456Z,55.67
2018-03-26T22:51:20.499Z,54.90
2018-03-26T22:53:49.797Z,51.67
2018-03-26T22:56:18.826Z,53.23
2018-03-26T22:58:47.101Z,49.10
2018-03-26T23:01:15.370Z,50.43
2018-03-26T23:03:43.622Z,57.60
2018-03-26T23:06:12.653Z,57.10
2018-03-26T23:08:41.024Z,53.20
2018-03-26T23:11:09.330Z,57.83
2018-03-26T23:13:37.605Z,56.00
2018-03-26T23:16:05.907Z,56.53
2018-03-26T23:18:34.955Z,60.73
2018-03-26T23:34:03.368Z,61.53
2018-03-26T23:36:32.401Z,59.60
2018-03-26T23:39:00.663Z,67.13
2018-03-26T23:41:28.930Z,56.80
2018-03-26T23:43:57.223Z,59.20
2018-03-26T23:46:25.550Z,58.90
2018-03-26T23:48:54.639Z,55.23
2018-03-26T23:51:22.891Z,59.13
2018-03-26T23:53:51.168Z,54.37
2018-03-26T23:56:19.611Z,59.43
2018-03-26T23:58:47.910Z,55.77
